Time;durP1;ratioP1;P1;durP2;ratioP2;P2;SDS_P1;SDS_P2;PMS_P1;PMS_P2;Temp;Humidity;BMP_temperature;BMP_pressure;BME280_temperature;BME280_humidity;BME280_pressure;Samples;Min_cycle;Max_cycle;Signal;HPM_P1;HPM_P2
2023/04/07 08:32:25;;;;;;;;;;;;;;;12.13;55.34;99746.25;1087204;54;19938;-79
2023/04/07 08:38:22;;;;;;;;;;;;;;;12.19;56.54;99741.25;1087757;54;19945;-80
2023/04/07 08:58:33;;;;;;;;;;;;;;;12.70;54.18;99755.44;1089124;54;19930;-78
2023/04/07 09:00:54;;;;;;;;;;;;;;;12.44;54.88;99766.28;1088924;54;19950;-79
2023/04/07 09:01:55;;;;;;;;;;;;;;;12.41;55.34;99766.59;1089688;46;19942;-79
2023/04/07 09:03:03;;;;;;;;;;;;;;;12.45;54.93;99768.78;1089062;54;20010;-79
2023/04/07 09:04:08;;;;;;;;;;;;;;;12.53;54.61;99770.66;1089060;54;19950;-80
2023/04/07 09:05:20;;;;;;;;;;;;;;;12.53;54.49;99770.66;1089275;38;20165;-79
2023/04/07 09:06:24;;;;;;;;;;;;;;;12.47;54.25;99760.56;1089226;46;20047;-79
2023/04/07 09:07:25;;;;;;;;;;;;;;;12.52;54.50;99760.94;1089093;54;20038;-79
2023/04/07 09:08:29;;;;;;;;;;;;;;;12.52;54.60;99765.44;1089073;54;19939;-78
2023/04/07 09:09:33;;;;;;;;;;;;;;;12.36;54.74;99767.09;1089671;46;19946;-79
2023/04/07 09:10:35;;;;;;;;;;;;;;;12.14;55.45;99773.88;1089092;54;19942;-78
2023/04/07 09:11:56;;;;;;;;;;;;;;;12.06;55.29;99772.00;1088980;54;20031;-78
2023/04/07 09:12:57;;;;;;;;;;;;;;;12.24;55.11;99771.06;1088875;54;19967;-79
2023/04/07 09:14:04;;;;;;;;;;;;;;;12.29;55.04;99766.88;1089007;54;19943;-77
2023/04/07 09:15:07;;;;;;;;;;;;;;;12.32;55.13;99768.44;1088885;54;19954;-78
2023/04/07 09:17:35;;;;;;;;;;;;;;;12.30;54.63;99768.56;1088955;46;20026;-78
2023/04/07 09:18:38;;;;;;;;;;;;;;;12.23;55.14;99775.59;1089411;46;19950;-78
2023/04/07 09:19:48;;;;;;;;;;;;;;;12.11;55.50;99772.38;1088922;54;20236;-78
2023/04/07 09:20:56;;;;;;;;;;;;;;;11.92;55.95;99772.59;1089787;46;20003;-76
2023/04/07 09:22:00;;;;;;;;;;;;;;;11.80;55.76;99772.84;1089700;46;19943;-78
2023/04/07 09:23:04;;;;;;;;;;;;;;;11.79;56.21;99775.72;1089035;54;19938;-80
2023/04/07 09:24:31;;;;;;;;;;;;;;;11.84;56.22;99762.66;1090021;46;19950;-78
2023/04/07 09:25:35;;;;;;;;;;;;;;;11.89;55.87;99770.22;1088979;54;19951;-79
2023/04/07 09:26:36;;;;;;;;;;;;;;;11.91;55.94;99771.72;1089465;54;19966;-79
2023/04/07 09:27:40;;;;;;;;;;;;;;;12.00;55.74;99770.78;1089474;54;19943;-78
2023/04/07 09:28:42;;;;;;;;;;;;;;;12.08;55.85;99771.84;1089413;54;19950;-80
2023/04/07 09:29:49;;;;;;;;;;;;;;;12.14;55.87;99779.25;1089255;54;19950;-78
2023/04/07 09:30:53;;;;;;;;;;;;;;;12.19;55.51;99776.91;1089270;54;19943;-79
2023/04/07 09:31:57;;;;;;;;;;;;;;;12.04;55.40;99775.84;1089392;54;19938;-80
2023/04/07 09:32:59;;;;;;;;;;;;;;;11.96;55.40;99777.47;1089401;54;19942;-78
2023/04/07 09:34:05;;;;;;;;;;;;;;;12.05;55.64;99777.53;1089357;54;19967;-79
2023/04/07 09:35:09;;;;;;;;;;;;;;;12.05;55.64;99774.84;1091023;38;20787;-80
2023/04/07 09:36:11;;;;;;;;;;;;;;;11.85;55.58;99778.56;1089406;54;19950;-78
2023/04/07 09:37:23;;;;;;;;;;;;;;;11.68;56.53;99772.31;1089351;54;19949;-78
2023/04/07 09:38:37;;;;;;;;;;;;;;;11.54;57.38;99780.91;1089407;54;19943;-79
2023/04/07 09:39:48;;;;;;;;;;;;;;;11.55;57.43;99777.22;1089405;54;19942;-78
2023/04/07 09:40:52;;;;;;;;;;;;;;;11.49;57.81;99777.88;1089322;54;20563;-79
2023/04/07 09:41:53;;;;;;;;;;;;;;;11.48;58.33;99786.88;1089329;54;19964;-78
2023/04/07 09:42:57;;;;;;;;;;;;;;;11.45;58.53;99774.66;1089318;54;19949;-79
2023/04/07 09:43:58;;;;;;;;;;;;;;;11.50;58.60;99785.72;1089303;54;19943;-78
2023/04/07 09:45:04;;;;;;;;;;;;;;;11.64;58.05;99783.47;1089359;54;19949;-78
2023/04/07 09:46:07;;;;;;;;;;;;;;;11.75;58.27;99782.38;1089359;54;19942;-78
2023/04/07 09:47:11;;;;;;;;;;;;;;;11.77;58.04;99777.69;1089287;54;19935;-78
2023/04/07 09:48:18;;;;;;;;;;;;;;;11.67;58.06;99781.31;1090263;38;20559;-79
2023/04/07 09:49:22;;;;;;;;;;;;;;;11.76;57.73;99786.72;1089366;54;19973;-79
2023/04/07 09:50:34;;;;;;;;;;;;;;;11.85;57.64;99772.38;1089237;54;19942;-77
2023/04/07 09:51:37;;;;;;;;;;;;;;;11.97;57.47;99778.28;1089303;54;19943;-79
2023/04/07 09:52:49;;;;;;;;;;;;;;;11.90;57.36;99785.28;1089325;54;19973;-78
2023/04/07 09:54:01;;;;;;;;;;;;;;;11.88;57.16;99779.25;1089316;54;19938;-78
2023/04/07 09:55:05;;;;;;;;;;;;;;;11.82;57.21;99780.72;1089538;54;19965;-78
2023/04/07 09:56:09;;;;;;;;;;;;;;;12.09;57.25;99776.22;1089281;54;19966;-78
2023/04/07 09:57:11;;;;;;;;;;;;;;;12.35;56.68;99778.81;1089217;54;19942;-77
2023/04/07 09:58:15;;;;;;;;;;;;;;;12.65;55.82;99779.22;1088882;54;19943;-78
2023/04/07 09:59:16;;;;;;;;;;;;;;;13.02;55.15;99775.22;1089124;54;19950;-79
2023/04/07 10:00:23;;;;;;;;;;;;;;;12.97;54.21;99771.38;1089119;54;20674;-79
2023/04/07 10:01:27;;;;;;;;;;;;;;;12.91;54.09;99767.50;1089065;54;19942;-79
2023/04/07 10:02:28;;;;;;;;;;;;;;;12.98;54.10;99767.69;1089113;54;19942;-79
2023/04/07 10:03:34;;;;;;;;;;;;;;;12.94;54.40;99767.19;1089048;54;19970;-77
2023/04/07 10:04:38;;;;;;;;;;;;;;;12.93;54.54;99774.41;1089151;54;19950;-78
2023/04/07 10:05:40;;;;;;;;;;;;;;;12.95;54.42;99769.69;1089301;54;20911;-79
2023/04/07 10:06:44;;;;;;;;;;;;;;;13.21;54.18;99768.69;1089323;54;19943;-78
2023/04/07 10:07:45;;;;;;;;;;;;;;;13.45;53.48;99764.31;1089386;54;19938;-77
2023/04/07 10:08:49;;;;;;;;;;;;;;;13.74;53.20;99768.28;1097910;38;20490;-78
2023/04/07 10:09:53;;;;;;;;;;;;;;;14.06;52.70;99769.19;1088094;54;19982;-78
2023/04/07 10:10:54;;;;;;;;;;;;;;;14.20;51.76;99763.06;1088210;54;19939;-77
2023/04/07 10:11:59;;;;;;;;;;;;;;;14.34;51.48;99757.97;1089201;46;19965;-78
2023/04/07 10:13:06;;;;;;;;;;;;;;;14.53;51.35;99759.38;1088308;54;19939;-78
2023/04/07 10:14:11;;;;;;;;;;;;;;;14.80;50.67;99758.06;1095922;39;20350;-78
2023/04/07 10:15:14;;;;;;;;;;;;;;;14.57;50.49;99751.78;1089083;46;19943;-77
2023/04/07 10:16:20;;;;;;;;;;;;;;;14.52;50.89;99760.38;1093711;39;20955;-77
2023/04/07 10:17:25;;;;;;;;;;;;;;;14.21;50.78;99763.94;1088826;46;19943;-79
2023/04/07 10:18:31;;;;;;;;;;;;;;;14.23;50.55;99753.81;1087592;54;19965;-77
2023/04/07 10:19:36;;;;;;;;;;;;;;;14.33;50.81;99753.59;1087870;54;20701;-79
2023/04/07 10:20:39;;;;;;;;;;;;;;;14.24;50.69;99755.50;1087659;54;19966;-77
2023/04/07 10:21:43;;;;;;;;;;;;;;;14.10;49.66;99762.44;1087880;46;19950;-78
2023/04/07 10:22:45;;;;;;;;;;;;;;;14.47;50.23;99758.22;1087615;54;19950;-78
2023/04/07 10:23:55;;;;;;;;;;;;;;;14.33;50.43;99750.91;1087448;54;20660;-77
2023/04/07 10:24:58;;;;;;;;;;;;;;;14.44;49.78;99755.91;1087644;54;19942;-79
2023/04/07 10:26:03;;;;;;;;;;;;;;;14.63;49.96;99753.78;1089888;39;20009;-77
2023/04/07 10:27:07;;;;;;;;;;;;;;;14.81;49.92;99758.88;1087503;54;19949;-79
2023/04/07 10:28:11;;;;;;;;;;;;;;;14.77;49.84;99757.56;1087519;54;19942;-80
2023/04/07 10:29:13;;;;;;;;;;;;;;;14.82;48.77;99761.41;1087655;54;19969;-81
2023/04/07 10:30:20;;;;;;;;;;;;;;;14.78;48.87;99753.88;1087604;54;19949;-79
2023/04/07 10:31:27;;;;;;;;;;;;;;;14.70;48.26;99753.91;1087540;54;20927;-79
2023/04/07 10:32:28;;;;;;;;;;;;;;;14.45;48.21;99757.56;1087599;54;19950;-79
2023/04/07 10:33:48;;;;;;;;;;;;;;;14.04;48.02;99760.47;1087565;54;19943;-79
2023/04/07 10:34:57;;;;;;;;;;;;;;;13.97;49.04;99762.19;1088015;39;20964;-78
2023/04/07 10:36:07;;;;;;;;;;;;;;;13.92;49.35;99765.38;1087476;54;20014;-78
2023/04/07 10:37:09;;;;;;;;;;;;;;;14.12;49.55;99763.13;1087554;54;19950;-79
2023/04/07 10:38:15;;;;;;;;;;;;;;;14.29;49.35;99754.97;1087521;54;19949;-79
2023/04/07 10:39:19;;;;;;;;;;;;;;;14.15;48.31;99751.16;1087559;54;20013;-78
2023/04/07 10:40:30;;;;;;;;;;;;;;;14.01;48.43;99758.13;1087629;54;19942;-78
2023/04/07 10:41:32;;;;;;;;;;;;;;;13.90;49.13;99753.97;1087485;54;19943;-79
2023/04/07 10:42:48;;;;;;;;;;;;;;;13.69;48.85;99754.56;1087563;54;19989;-78
2023/04/07 10:43:50;;;;;;;;;;;;;;;13.65;49.86;99758.56;1087614;54;19950;-79
2023/04/07 10:44:54;;;;;;;;;;;;;;;13.86;49.90;99758.84;1087588;54;19954;-79
2023/04/07 10:45:58;;;;;;;;;;;;;;;13.96;50.14;99755.13;1087451;54;19943;-78
2023/04/07 10:47:08;;;;;;;;;;;;;;;13.97;49.78;99751.44;1087494;54;19955;-78
2023/04/07 10:48:09;;;;;;;;;;;;;;;14.09;49.22;99754.56;1087558;54;19942;-79
2023/04/07 10:49:13;;;;;;;;;;;;;;;14.14;49.10;99753.03;1087423;54;19943;-78
2023/04/07 10:50:16;;;;;;;;;;;;;;;14.16;49.30;99748.31;1087507;54;19965;-78
2023/04/07 10:51:20;;;;;;;;;;;;;;;14.20;48.72;99751.50;1090436;39;20822;-79
2023/04/07 10:52:22;;;;;;;;;;;;;;;14.13;48.93;99756.72;1087394;54;19973;-79
2023/04/07 10:53:26;;;;;;;;;;;;;;;14.12;49.34;99759.59;1087602;54;19949;-78
2023/04/07 10:54:30;;;;;;;;;;;;;;;14.23;49.02;99755.69;1087569;54;19943;-79
2023/04/07 10:55:32;;;;;;;;;;;;;;;14.09;49.34;99755.38;1087463;54;19942;-78
2023/04/07 10:57:03;;;;;;;;;;;;;;;14.02;49.39;99762.47;1089541;39;20609;-79
2023/04/07 10:58:18;;;;;;;;;;;;;;;14.05;49.28;99770.22;1087434;54;20034;-78
2023/04/07 10:59:26;;;;;;;;;;;;;;;14.08;48.82;99759.09;1087846;54;19948;-77
2023/04/07 11:00:27;;;;;;;;;;;;;;;14.15;49.10;99760.09;1088538;46;19942;-78
2023/04/07 11:01:31;;;;;;;;;;;;;;;14.17;48.66;99765.28;1088841;46;19938;-77
2023/04/07 11:02:37;;;;;;;;;;;;;;;14.17;48.81;99762.59;1087692;54;19955;-78
2023/04/07 11:03:41;;;;;;;;;;;;;;;14.07;48.49;99762.81;1087574;54;19938;-78
2023/04/07 11:04:44;;;;;;;;;;;;;;;14.16;48.70;99767.16;1087840;54;19943;-78
2023/04/07 11:05:47;;;;;;;;;;;;;;;14.17;48.66;99754.53;1088202;46;19949;-79
2023/04/07 11:06:49;;;;;;;;;;;;;;;14.22;48.50;99748.63;1088884;46;19938;-78
2023/04/07 11:07:54;;;;;;;;;;;;;;;14.26;48.47;99758.03;1087850;54;19950;-78
2023/04/07 11:08:55;;;;;;;;;;;;;;;14.23;48.36;99750.31;1087634;54;19943;-78
2023/04/07 11:10:10;;;;;;;;;;;;;;;14.22;48.48;99754.81;1087809;47;19954;-78
2023/04/07 11:11:15;;;;;;;;;;;;;;;14.24;48.31;99757.34;1087687;54;19946;-79
2023/04/07 11:12:22;;;;;;;;;;;;;;;14.06;48.60;99755.75;1087806;54;20017;-78
2023/04/07 11:13:26;;;;;;;;;;;;;;;14.12;48.56;99760.44;1087970;46;19945;-77
2023/04/07 11:14:28;;;;;;;;;;;;;;;14.17;48.75;99752.66;1088262;46;19939;-79
2023/04/07 11:15:32;;;;;;;;;;;;;;;14.22;48.77;99746.75;1087947;46;19939;-79
2023/04/07 11:16:35;;;;;;;;;;;;;;;14.25;48.83;99750.97;1087804;54;19938;-78
2023/04/07 11:17:41;;;;;;;;;;;;;;;14.26;48.48;99740.03;1087792;54;19958;-79
2023/04/07 11:18:46;;;;;;;;;;;;;;;14.29;48.20;99742.38;1087820;54;19944;-79
2023/04/07 11:19:50;;;;;;;;;;;;;;;14.31;48.68;99747.56;1087767;54;19942;-79
2023/04/07 11:20:56;;;;;;;;;;;;;;;14.31;47.96;99750.25;1087621;54;19989;-77
2023/04/07 11:22:16;;;;;;;;;;;;;;;14.37;48.42;99741.47;1087703;54;19957;-79
2023/04/07 11:23:17;;;;;;;;;;;;;;;14.20;48.85;99741.56;1088772;46;19943;-80
2023/04/07 11:24:33;;;;;;;;;;;;;;;14.31;48.63;99744.88;1087636;54;19942;-79
2023/04/07 11:25:35;;;;;;;;;;;;;;;14.42;48.13;99739.09;1088618;46;19950;-78
2023/04/07 11:26:40;;;;;;;;;;;;;;;14.54;47.84;99749.47;1087489;54;19943;-78
2023/04/07 11:27:43;;;;;;;;;;;;;;;14.19;47.19;99745.25;1087671;54;19942;-78
2023/04/07 11:28:47;;;;;;;;;;;;;;;13.92;47.11;99748.41;1087942;39;20277;-77
2023/04/07 11:29:49;;;;;;;;;;;;;;;13.92;47.40;99757.31;1087556;54;19998;-78
2023/04/07 11:30:53;;;;;;;;;;;;;;;14.01;47.48;99753.59;1087576;54;19990;-78
2023/04/07 11:32:00;;;;;;;;;;;;;;;14.13;47.56;99753.19;1087660;54;19954;-78
2023/04/07 11:33:03;;;;;;;;;;;;;;;14.14;47.67;99746.81;1087592;54;19943;-77
2023/04/07 11:34:07;;;;;;;;;;;;;;;14.19;47.43;99749.81;1087536;54;19974;-77
2023/04/07 11:35:09;;;;;;;;;;;;;;;14.21;47.33;99745.13;1087915;39;20318;-77
2023/04/07 11:36:13;;;;;;;;;;;;;;;14.25;47.17;99742.91;1088053;46;19954;-78
2023/04/07 11:37:20;;;;;;;;;;;;;;;14.41;47.29;99747.31;1087904;54;19939;-78
2023/04/07 11:38:26;;;;;;;;;;;;;;;14.48;46.91;99749.13;1088320;46;19939;-79
2023/04/07 11:39:30;;;;;;;;;;;;;;;14.56;46.76;99750.09;1088604;46;19964;-79
2023/04/07 11:40:33;;;;;;;;;;;;;;;14.59;46.71;99749.75;1087600;54;19962;-78
2023/04/07 11:41:47;;;;;;;;;;;;;;;14.28;47.25;99753.28;1087714;54;21373;-78
2023/04/07 11:42:48;;;;;;;;;;;;;;;14.42;47.27;99752.56;1087820;54;19965;-78
2023/04/07 11:44:05;;;;;;;;;;;;;;;14.45;47.37;99746.78;1087355;54;19998;-79
2023/04/07 11:45:18;;;;;;;;;;;;;;;14.49;47.12;99756.19;1087372;54;19966;-78
2023/04/07 11:46:22;;;;;;;;;;;;;;;14.57;46.96;99757.16;1087537;54;19942;-78
2023/04/07 11:47:32;;;;;;;;;;;;;;;14.57;46.34;99754.47;1089361;39;20624;-79
2023/04/07 11:48:41;;;;;;;;;;;;;;;14.57;46.61;99757.16;1087788;54;19950;-79
2023/04/07 11:49:44;;;;;;;;;;;;;;;14.50;46.60;99755.19;1087654;54;19950;-80
2023/04/07 11:50:48;;;;;;;;;;;;;;;14.49;46.92;99758.88;1087807;54;19942;-79
2023/04/07 11:51:59;;;;;;;;;;;;;;;14.36;46.26;99753.22;1087761;54;20222;-79
2023/04/07 11:53:00;;;;;;;;;;;;;;;14.27;46.59;99755.16;1087664;54;20341;-78
2023/04/07 11:54:04;;;;;;;;;;;;;;;14.36;46.91;99753.22;1087544;54;19950;-78
2023/04/07 11:55:06;;;;;;;;;;;;;;;14.41;46.70;99756.25;1087634;54;20286;-76
2023/04/07 11:56:15;;;;;;;;;;;;;;;14.39;46.98;99750.19;1087636;54;19965;-78
2023/04/07 11:57:26;;;;;;;;;;;;;;;14.39;46.78;99755.59;1087583;54;19950;-79
2023/04/07 11:58:27;;;;;;;;;;;;;;;14.35;46.83;99754.28;1087726;54;19951;-78
2023/04/07 11:59:31;;;;;;;;;;;;;;;14.40;46.65;99749.19;1087677;54;19969;-79
2023/04/07 12:00:32;;;;;;;;;;;;;;;14.33;46.36;99756.31;1087699;54;19949;-77
2023/04/07 12:01:43;;;;;;;;;;;;;;;14.26;46.76;99748.09;1087354;54;19950;-78
2023/04/07 12:02:45;;;;;;;;;;;;;;;14.29;46.88;99754.97;1087437;54;19973;-78
2023/04/07 12:04:01;;;;;;;;;;;;;;;14.32;46.66;99755.44;1087419;54;19973;-79
2023/04/07 12:05:06;;;;;;;;;;;;;;;14.06;46.39;99755.75;1087429;54;19943;-79
2023/04/07 12:06:09;;;;;;;;;;;;;;;14.06;46.79;99752.22;1087485;54;19950;-77
2023/04/07 12:07:11;;;;;;;;;;;;;;;13.83;46.86;99755.69;1087839;39;20506;-78
2023/04/07 12:08:15;;;;;;;;;;;;;;;13.83;47.41;99750.31;1087477;54;19943;-77
2023/04/07 12:09:31;;;;;;;;;;;;;;;13.79;47.15;99752.47;1087310;54;19965;-78
2023/04/07 12:10:33;;;;;;;;;;;;;;;13.88;47.31;99753.31;1087356;54;20002;-78
2023/04/07 12:11:38;;;;;;;;;;;;;;;14.01;47.27;99758.13;1087426;54;19943;-78
2023/04/07 12:12:39;;;;;;;;;;;;;;;14.06;47.21;99753.06;1087340;54;19949;-77
2023/04/07 12:13:43;;;;;;;;;;;;;;;14.08;46.70;99751.03;1087486;54;19950;-79
2023/04/07 12:14:44;;;;;;;;;;;;;;;14.14;46.73;99747.66;1087453;54;19943;-77
2023/04/07 12:15:47;;;;;;;;;;;;;;;14.18;46.71;99748.13;1087366;54;20023;-78
2023/04/07 12:16:49;;;;;;;;;;;;;;;14.11;46.11;99753.38;1087427;54;19949;-78
2023/04/07 12:17:54;;;;;;;;;;;;;;;14.02;46.59;99749.03;1087401;54;20015;-78
2023/04/07 12:19:01;;;;;;;;;;;;;;;14.05;46.75;99748.72;1089926;39;20597;-78
2023/04/07 12:20:02;;;;;;;;;;;;;;;14.00;46.96;99749.22;1087561;54;19950;-79
2023/04/07 12:21:06;;;;;;;;;;;;;;;14.12;46.87;99746.16;1088314;39;20593;-79
2023/04/07 12:22:07;;;;;;;;;;;;;;;14.22;46.48;99743.25;1087357;54;19966;-78
2023/04/07 12:23:11;;;;;;;;;;;;;;;14.33;46.12;99745.53;1087292;54;19938;-78
2023/04/07 12:24:15;;;;;;;;;;;;;;;14.37;45.88;99752.22;1087350;54;19938;-78
2023/04/07 12:25:17;;;;;;;;;;;;;;;14.14;46.25;99758.41;1087329;54;19942;-78
2023/04/07 12:26:20;;;;;;;;;;;;;;;14.10;46.68;99756.25;1087251;54;19950;-78
2023/04/07 12:27:24;;;;;;;;;;;;;;;14.08;46.43;99753.72;1089908;39;20601;-79
2023/04/07 12:28:26;;;;;;;;;;;;;;;14.22;46.51;99754.00;1087315;54;19942;-79
2023/04/07 12:29:30;;;;;;;;;;;;;;;14.32;46.29;99749.25;1087254;54;20006;-78
2023/04/07 12:30:31;;;;;;;;;;;;;;;14.29;45.67;99739.69;1087320;47;20941;-78
2023/04/07 12:31:36;;;;;;;;;;;;;;;14.28;45.65;99743.38;1087351;54;19942;-78
2023/04/07 12:32:37;;;;;;;;;;;;;;;14.40;45.94;99751.06;1087173;54;19968;-80
2023/04/07 12:33:41;;;;;;;;;;;;;;;14.45;45.66;99743.28;1087360;54;19950;-79
2023/04/07 12:34:46;;;;;;;;;;;;;;;14.49;45.70;99750.00;1087308;54;19998;-78
2023/04/07 12:35:50;;;;;;;;;;;;;;;14.56;45.77;99750.09;1087465;54;19965;-78
2023/04/07 12:36:54;;;;;;;;;;;;;;;14.64;45.47;99739.31;1087322;54;19957;-79
2023/04/07 12:37:55;;;;;;;;;;;;;;;14.65;45.13;99739.13;1087711;39;20152;-79
2023/04/07 12:38:59;;;;;;;;;;;;;;;14.74;45.43;99736.41;1087684;39;20193;-77
2023/04/07 12:40:01;;;;;;;;;;;;;;;14.78;44.93;99748.50;1087804;39;20530;-78
2023/04/07 12:41:05;;;;;;;;;;;;;;;14.85;45.08;99737.81;1087307;54;19942;-78
2023/04/07 12:42:07;;;;;;;;;;;;;;;14.85;45.15;99743.19;1088410;46;19965;-78
2023/04/07 12:43:11;;;;;;;;;;;;;;;14.86;45.24;99740.34;1087342;47;20547;-78
2023/04/07 12:44:15;;;;;;;;;;;;;;;14.71;45.41;99745.66;1088483;47;19999;-80
2023/04/07 12:45:16;;;;;;;;;;;;;;;14.84;45.23;99745.06;1087441;54;19943;-78
2023/04/07 12:46:21;;;;;;;;;;;;;;;14.89;44.94;99741.84;1088134;46;19942;-80
2023/04/07 12:47:22;;;;;;;;;;;;;;;14.87;44.87;99736.66;1087709;54;19965;-79
2023/04/07 12:48:26;;;;;;;;;;;;;;;14.84;45.18;99745.06;1087674;54;19954;-80
2023/04/07 12:49:27;;;;;;;;;;;;;;;14.87;45.41;99738.47;1087729;54;19942;-80
2023/04/07 12:50:34;;;;;;;;;;;;;;;14.93;45.26;99737.75;1087963;47;19939;-78
2023/04/07 12:51:36;;;;;;;;;;;;;;;14.80;45.10;99739.22;1087611;54;19939;-79
2023/04/07 12:52:40;;;;;;;;;;;;;;;14.84;45.20;99737.00;1087814;54;19942;-80
2023/04/07 12:53:41;;;;;;;;;;;;;;;14.88;44.78;99738.28;1087736;54;19943;-79
2023/04/07 12:54:45;;;;;;;;;;;;;;;14.97;45.02;99737.22;1087802;54;20001;-78
2023/04/07 12:55:47;;;;;;;;;;;;;;;14.83;44.50;99732.63;1087900;54;20006;-79
2023/04/07 12:56:51;;;;;;;;;;;;;;;14.73;45.13;99738.25;1087745;54;19943;-79
2023/04/07 12:57:52;;;;;;;;;;;;;;;14.82;45.34;99736.34;1087543;54;19942;-79
2023/04/07 12:58:56;;;;;;;;;;;;;;;14.87;45.29;99735.78;1087671;54;19949;-79
2023/04/07 12:59:57;;;;;;;;;;;;;;;14.81;45.45;99735.50;1087538;54;19950;-78
2023/04/07 13:01:01;;;;;;;;;;;;;;;14.93;45.24;99732.38;1087470;54;19964;-77
2023/04/07 13:02:03;;;;;;;;;;;;;;;14.89;45.50;99736.47;1087644;47;19950;-77
2023/04/07 13:03:06;;;;;;;;;;;;;;;14.81;46.18;99740.88;1087451;54;19943;-78
2023/04/07 13:04:08;;;;;;;;;;;;;;;14.67;45.70;99736.28;1087613;54;19943;-79
2023/04/07 13:05:11;;;;;;;;;;;;;;;14.75;45.74;99736.22;1087603;54;19943;-79
2023/04/07 13:06:16;;;;;;;;;;;;;;;14.79;45.82;99740.22;1087686;47;19946;-79
2023/04/07 13:07:20;;;;;;;;;;;;;;;14.70;45.83;99735.94;1087500;54;19943;-78
2023/04/07 13:08:26;;;;;;;;;;;;;;;14.79;45.89;99737.53;1087542;54;19942;-78
2023/04/07 13:09:27;;;;;;;;;;;;;;;14.86;45.50;99740.34;1087491;54;19965;-78
2023/04/07 13:10:31;;;;;;;;;;;;;;;14.93;45.43;99735.06;1087642;47;20019;-79
2023/04/07 13:11:32;;;;;;;;;;;;;;;14.97;45.34;99739.91;1087467;54;19943;-78
2023/04/07 13:12:35;;;;;;;;;;;;;;;15.00;45.56;99735.19;1087545;54;19985;-78
2023/04/07 13:13:39;;;;;;;;;;;;;;;14.91;45.15;99737.13;1087464;54;19942;-79
2023/04/07 13:14:44;;;;;;;;;;;;;;;14.89;45.39;99736.47;1087922;47;19938;-78
2023/04/07 13:15:48;;;;;;;;;;;;;;;14.60;46.56;99736.13;1087452;54;19966;-78
2023/04/07 13:16:49;;;;;;;;;;;;;;;14.52;47.08;99738.84;1089513;39;20538;-78
2023/04/07 13:17:53;;;;;;;;;;;;;;;14.51;47.09;99735.34;1087434;54;19943;-78
2023/04/07 13:18:54;;;;;;;;;;;;;;;14.42;47.59;99735.56;1088025;47;19938;-78
2023/04/07 13:19:58;;;;;;;;;;;;;;;14.39;47.66;99742.13;1087384;54;19942;-78
2023/04/07 13:21:02;;;;;;;;;;;;;;;14.37;47.80;99736.09;1087344;54;19950;-78
2023/04/07 13:22:08;;;;;;;;;;;;;;;14.28;47.62;99739.84;1087374;54;19950;-79
2023/04/07 13:23:12;;;;;;;;;;;;;;;14.20;48.01;99741.56;1088304;47;19938;-78
2023/04/07 13:24:13;;;;;;;;;;;;;;;14.26;48.16;99741.91;1087464;54;19944;-78
2023/04/07 13:25:17;;;;;;;;;;;;;;;14.32;47.92;99733.09;1087475;54;19943;-78
2023/04/07 13:26:18;;;;;;;;;;;;;;;14.35;47.81;99738.97;1087276;54;19950;-78
2023/04/07 13:27:22;;;;;;;;;;;;;;;14.33;47.58;99734.78;1087507;54;19989;-78
2023/04/07 13:28:26;;;;;;;;;;;;;;;14.34;47.62;99744.53;1087390;54;19949;-79
2023/04/07 13:29:27;;;;;;;;;;;;;;;14.29;47.27;99738.84;1087515;54;19942;-78
2023/04/07 13:30:31;;;;;;;;;;;;;;;14.15;47.37;99743.97;1087565;54;19950;-78
2023/04/07 13:31:32;;;;;;;;;;;;;;;14.15;47.71;99743.09;1087372;54;19942;-78
2023/04/07 13:32:36;;;;;;;;;;;;;;;14.11;47.75;99741.78;1088076;39;20593;-77
2023/04/07 13:33:40;;;;;;;;;;;;;;;14.10;47.80;99738.25;1087285;54;19950;-77
2023/04/07 13:34:42;;;;;;;;;;;;;;;14.00;48.09;99745.69;1087312;54;19942;-80
2023/04/07 13:35:46;;;;;;;;;;;;;;;13.87;48.13;99747.09;1087125;54;19943;-77
2023/04/07 13:36:50;;;;;;;;;;;;;;;13.77;48.34;99746.47;1087325;54;19994;-78
2023/04/07 13:37:56;;;;;;;;;;;;;;;13.72;48.39;99746.13;1087271;54;19950;-77
2023/04/07 13:38:57;;;;;;;;;;;;;;;13.56;48.47;99753.22;1088089;47;19943;-78
2023/04/07 13:40:01;;;;;;;;;;;;;;;13.49;48.83;99746.03;1087260;54;19965;-78
2023/04/07 13:41:02;;;;;;;;;;;;;;;13.52;48.64;99749.19;1087177;54;19946;-78
2023/04/07 13:42:08;;;;;;;;;;;;;;;13.55;48.30;99745.34;1087866;47;19943;-78
2023/04/07 13:43:11;;;;;;;;;;;;;;;13.64;48.36;99741.63;1087165;54;19974;-77
2023/04/07 13:44:14;;;;;;;;;;;;;;;13.75;48.07;99743.09;1090324;39;20211;-78
2023/04/07 13:45:15;;;;;;;;;;;;;;;13.83;48.00;99745.75;1087719;47;19945;-77
2023/04/07 13:46:19;;;;;;;;;;;;;;;13.93;47.78;99744.72;1087520;54;19939;-78
2023/04/07 13:47:21;;;;;;;;;;;;;;;13.98;47.82;99750.44;1087583;54;19942;-77
2023/04/07 13:48:25;;;;;;;;;;;;;;;14.06;47.44;99750.38;1087609;54;19943;-77
2023/04/07 13:49:26;;;;;;;;;;;;;;;14.12;47.20;99754.22;1087635;54;19943;-78
2023/04/07 13:50:29;;;;;;;;;;;;;;;14.13;46.73;99751.34;1087728;54;19942;-78
2023/04/07 13:51:33;;;;;;;;;;;;;;;14.11;47.00;99755.22;1087697;54;20038;-76
2023/04/07 13:52:35;;;;;;;;;;;;;;;13.96;47.09;99749.75;1088264;46;19942;-77
2023/04/07 13:53:41;;;;;;;;;;;;;;;13.83;47.81;99761.88;1087754;54;19943;-79
2023/04/07 13:54:45;;;;;;;;;;;;;;;13.60;49.74;99755.59;1087774;54;19966;-78
2023/04/07 13:55:46;;;;;;;;;;;;;;;13.38;51.26;99763.31;1087819;54;19947;-79
2023/04/07 13:56:50;;;;;;;;;;;;;;;13.48;50.83;99760.44;1088469;46;19973;-78
2023/04/07 13:57:52;;;;;;;;;;;;;;;13.30;52.00;99749.91;1088009;54;20022;-78
2023/04/07 13:58:56;;;;;;;;;;;;;;;13.08;51.92;99758.44;1088832;46;19938;-78
2023/04/07 13:59:57;;;;;;;;;;;;;;;12.93;52.78;99766.34;1087942;54;19943;-79
2023/04/07 14:01:01;;;;;;;;;;;;;;;12.83;52.89;99752.25;1088131;54;19985;-79
2023/04/07 14:02:02;;;;;;;;;;;;;;;12.88;52.57;99752.59;1087925;54;19946;-79
2023/04/07 14:03:06;;;;;;;;;;;;;;;12.84;53.00;99761.13;1087923;47;19981;-78
2023/04/07 14:04:07;;;;;;;;;;;;;;;12.64;53.21;99761.44;1088066;54;19943;-77
2023/04/07 14:05:11;;;;;;;;;;;;;;;12.64;53.97;99759.63;1089241;46;19942;-78
2023/04/07 14:06:12;;;;;;;;;;;;;;;12.67;54.08;99757.59;1091276;46;19943;-77
2023/04/07 14:07:16;;;;;;;;;;;;;;;12.55;54.42;99759.75;1088058;54;19946;-78
2023/04/07 14:08:22;;;;;;;;;;;;;;;12.62;54.38;99766.13;1089730;46;19938;-77
2023/04/07 14:09:26;;;;;;;;;;;;;;;12.68;54.32;99756.59;1088101;54;19943;-79
2023/04/07 14:10:30;;;;;;;;;;;;;;;12.53;54.84;99761.75;1088197;46;19943;-78
2023/04/07 14:11:33;;;;;;;;;;;;;;;12.62;54.46;99760.75;1087544;54;19949;-78
2023/04/07 14:12:37;;;;;;;;;;;;;;;12.64;54.36;99764.13;1087670;54;19949;-79
2023/04/07 14:13:38;;;;;;;;;;;;;;;12.74;53.82;99761.31;1087692;54;19946;-78
2023/04/07 14:14:42;;;;;;;;;;;;;;;12.80;54.03;99755.25;1087651;54;20046;-78
2023/04/07 14:15:43;;;;;;;;;;;;;;;12.63;54.53;99754.41;1087567;54;19942;-77
2023/04/07 14:16:49;;;;;;;;;;;;;;;12.66;54.83;99763.97;1087597;54;20512;-78
2023/04/07 14:17:50;;;;;;;;;;;;;;;12.80;54.37;99760.63;1087537;54;19943;-77
2023/04/07 14:18:54;;;;;;;;;;;;;;;12.70;54.92;99759.94;1087593;54;21004;-79
2023/04/07 14:19:58;;;;;;;;;;;;;;;12.49;55.68;99769.28;1087515;54;19950;-78
2023/04/07 14:21:00;;;;;;;;;;;;;;;12.48;55.92;99767.59;1087660;54;19947;-77
2023/04/07 14:22:04;;;;;;;;;;;;;;;12.66;55.26;99766.66;1087639;54;19947;-77
2023/04/07 14:23:05;;;;;;;;;;;;;;;12.83;54.60;99765.66;1087612;54;19943;-77
2023/04/07 14:24:09;;;;;;;;;;;;;;;12.90;54.62;99761.31;1087563;54;19942;-79
2023/04/07 14:25:16;;;;;;;;;;;;;;;12.89;54.65;99761.50;1087585;54;19942;-76
2023/04/07 14:26:17;;;;;;;;;;;;;;;12.69;54.88;99774.34;1087418;54;19943;-77
2023/04/07 14:27:22;;;;;;;;;;;;;;;12.79;54.63;99759.81;1087519;54;19938;-77
2023/04/07 14:28:23;;;;;;;;;;;;;;;12.77;53.32;99767.16;1087564;54;19973;-77
2023/04/07 14:29:27;;;;;;;;;;;;;;;12.63;53.11;99765.13;1087480;54;19986;-77
2023/04/07 14:30:29;;;;;;;;;;;;;;;12.55;52.89;99773.16;1087468;54;19942;-77
2023/04/07 14:31:33;;;;;;;;;;;;;;;12.53;52.49;99775.16;1089003;39;20176;-77
2023/04/07 14:32:34;;;;;;;;;;;;;;;12.69;52.12;99771.66;1087915;39;20927;-80
2023/04/07 14:33:39;;;;;;;;;;;;;;;12.73;51.79;99771.19;1087576;54;19950;-78
2023/04/07 14:34:40;;;;;;;;;;;;;;;12.63;51.10;99776.72;1088298;46;19942;-77